createdAt,value
2022-09-07T00:01:08.048Z,17.06
2022-09-07T00:04:11.052Z,17.12
2022-09-07T00:07:13.829Z,17.10
2022-09-07T00:10:16.981Z,17.09
2022-09-07T00:13:19.480Z,17.13
2022-09-07T00:16:25.708Z,17.15
2022-09-07T00:19:28.244Z,17.19
2022-09-07T00:22:31.000Z,17.16
2022-09-07T00:25:38.640Z,17.11
2022-09-07T00:28:41.859Z,17.17
2022-09-07T00:31:44.457Z,17.12
2022-09-07T00:34:47.460Z,17.19
2022-09-07T00:37:50.007Z,17.09
2022-09-07T00:40:53.349Z,17.02
2022-09-07T00:43:58.662Z,16.92
2022-09-07T00:47:01.563Z,16.91
2022-09-07T00:50:35.766Z,17.00
2022-09-07T00:53:46.941Z,16.87
2022-09-07T00:56:52.763Z,16.82
2022-09-07T00:59:57.668Z,16.73
2022-09-07T01:03:01.943Z,16.78
2022-09-07T01:06:27.049Z,16.76
2022-09-07T01:09:30.102Z,16.64
2022-09-07T01:12:32.895Z,16.44
2022-09-07T01:15:59.620Z,16.36
2022-09-07T01:19:24.395Z,16.38
2022-09-07T01:22:59.432Z,16.36
2022-09-07T01:26:23.477Z,16.26
2022-09-07T01:29:32.373Z,16.20
2022-09-07T01:33:11.002Z,16.22
2022-09-07T01:36:21.931Z,16.22
2022-09-07T01:39:35.167Z,16.16
2022-09-07T01:42:51.133Z,16.15
2022-09-07T01:45:56.740Z,16.14
2022-09-07T01:49:28.977Z,16.14
2022-09-07T01:52:52.143Z,16.17
2022-09-07T01:56:07.296Z,16.25
2022-09-07T01:59:19.857Z,16.27
2022-09-07T02:02:29.723Z,16.39
2022-09-07T02:05:36.636Z,16.34
2022-09-07T02:08:49.456Z,16.30
2022-09-07T02:11:53.327Z,16.28
2022-09-07T02:15:01.805Z,16.24
2022-09-07T02:18:09.306Z,16.15
2022-09-07T02:21:15.467Z,16.15
2022-09-07T02:24:23.416Z,16.09
2022-09-07T02:27:35.728Z,16.05
2022-09-07T02:30:38.951Z,16.06
2022-09-07T02:33:42.600Z,16.02
2022-09-07T02:36:47.875Z,16.05
2022-09-07T02:39:50.634Z,16.11
2022-09-07T02:42:53.686Z,16.14
2022-09-07T02:46:17.526Z,16.10
2022-09-07T02:49:33.606Z,16.06
2022-09-07T02:52:51.371Z,16.00
2022-09-07T02:55:54.036Z,15.91
2022-09-07T02:59:20.043Z,15.84
2022-09-07T03:02:32.791Z,15.93
2022-09-07T03:05:59.985Z,15.95
2022-09-07T03:09:11.125Z,16.05
2022-09-07T03:12:14.329Z,16.00
2022-09-07T03:15:23.602Z,16.12
2022-09-07T03:18:27.547Z,16.17
2022-09-07T03:21:31.867Z,16.16
2022-09-07T03:24:34.433Z,16.12
2022-09-07T03:27:37.396Z,16.07
2022-09-07T03:30:44.227Z,16.15
2022-09-07T03:33:47.059Z,16.09
2022-09-07T03:36:49.551Z,16.14
2022-09-07T03:39:52.781Z,16.28
2022-09-07T03:42:55.334Z,16.19
2022-09-07T03:46:04.063Z,16.11
2022-09-07T03:49:06.816Z,16.05
2022-09-07T03:52:09.740Z,16.02
2022-09-07T03:55:12.355Z,15.96
2022-09-07T03:58:15.239Z,15.92
2022-09-07T04:01:23.726Z,15.84
2022-09-07T04:04:26.547Z,15.78
2022-09-07T04:07:29.281Z,15.70
2022-09-07T04:10:32.295Z,15.71
2022-09-07T04:13:36.143Z,15.75
2022-09-07T04:16:39.058Z,15.74
2022-09-07T04:19:41.670Z,15.85
2022-09-07T04:22:51.397Z,15.82
2022-09-07T04:25:56.363Z,15.83
2022-09-07T04:29:01.197Z,15.84
2022-09-07T04:32:03.773Z,15.89
2022-09-07T04:35:07.328Z,15.91
2022-09-07T04:38:14.786Z,15.95
2022-09-07T04:41:18.728Z,16.02
2022-09-07T04:44:21.228Z,16.06
2022-09-07T04:47:24.202Z,16.08
2022-09-07T04:50:26.669Z,16.17
2022-09-07T04:53:29.499Z,16.24
2022-09-07T04:56:32.973Z,16.30
2022-09-07T04:59:35.763Z,16.37
2022-09-07T05:02:38.644Z,16.55
2022-09-07T05:05:41.595Z,16.57
2022-09-07T05:08:50.673Z,16.70
2022-09-07T05:11:54.143Z,16.78
2022-09-07T05:14:57.126Z,16.82
2022-09-07T05:17:59.838Z,16.85
2022-09-07T05:21:13.981Z,16.93
2022-09-07T05:24:16.776Z,17.11
2022-09-07T05:27:19.321Z,17.38
2022-09-07T05:37:12.997Z,17.85
2022-09-07T05:40:15.778Z,17.89
2022-09-07T05:43:18.638Z,18.03
2022-09-07T05:46:23.856Z,18.20
2022-09-07T05:49:26.597Z,18.34
2022-09-07T05:52:29.754Z,18.44
2022-09-07T05:55:32.472Z,18.48
2022-09-07T05:58:36.024Z,18.62
2022-09-07T06:01:38.983Z,18.77
2022-09-07T06:04:42.704Z,18.85
2022-09-07T06:07:48.172Z,18.98
2022-09-07T06:10:51.005Z,19.02
2022-09-07T06:13:53.496Z,19.09
2022-09-07T06:16:56.403Z,19.15
2022-09-07T06:19:59.071Z,19.25
2022-09-07T06:23:02.040Z,19.45
2022-09-07T06:26:05.051Z,19.63
2022-09-07T06:29:09.682Z,19.58
2022-09-07T06:35:35.164Z,19.84
2022-09-07T06:38:38.789Z,19.82
2022-09-07T06:45:05.288Z,20.02
2022-09-07T06:48:08.088Z,20.13
2022-09-07T06:51:19.683Z,20.12
2022-09-07T06:57:45.376Z,20.16
2022-09-07T07:00:48.319Z,20.36
2022-09-07T07:03:52.680Z,20.38
2022-09-07T07:06:55.440Z,20.46
2022-09-07T07:09:57.983Z,20.53
2022-09-07T07:13:00.799Z,20.61
2022-09-07T07:16:15.427Z,20.65
2022-09-07T07:19:18.348Z,20.71
2022-09-07T07:25:43.685Z,21.05
2022-09-07T07:29:05.057Z,21.34
2022-09-07T07:32:08.259Z,21.42
2022-09-07T07:35:11.797Z,21.57
2022-09-07T07:48:18.312Z,21.75
2022-09-07T07:51:21.477Z,21.82
2022-09-07T07:54:23.925Z,21.80
2022-09-07T07:57:26.886Z,21.95
2022-09-07T08:00:50.707Z,22.11
2022-09-07T08:03:52.908Z,22.08
2022-09-07T08:06:55.348Z,21.94
2022-09-07T08:09:58.209Z,21.93
2022-09-07T08:13:00.738Z,22.25
2022-09-07T08:16:05.504Z,22.33
2022-09-07T08:19:08.309Z,22.20
2022-09-07T08:22:15.370Z,22.30
2022-09-07T08:25:28.502Z,22.49
2022-09-07T08:28:35.185Z,22.57
2022-09-07T08:31:38.215Z,22.43
2022-09-07T08:34:41.150Z,22.66
2022-09-07T08:37:43.891Z,22.98
2022-09-07T08:40:47.520Z,23.06
2022-09-07T08:43:58.046Z,23.39
2022-09-07T08:47:31.849Z,23.46
2022-09-07T08:50:53.167Z,23.64
2022-09-07T08:53:56.191Z,23.92
2022-09-07T09:00:27.050Z,24.26
2022-09-07T09:03:35.008Z,24.25
2022-09-07T09:07:16.547Z,24.40
2022-09-07T09:10:53.498Z,24.66
2022-09-07T09:14:20.185Z,24.74
2022-09-07T09:17:38.323Z,24.86
2022-09-07T09:20:52.077Z,24.83
2022-09-07T09:24:02.055Z,24.89
2022-09-07T09:27:05.246Z,25.17
2022-09-07T09:30:14.432Z,25.24
2022-09-07T09:33:26.066Z,25.10
2022-09-07T09:36:34.362Z,25.13
2022-09-07T09:39:38.251Z,25.40
2022-09-07T09:42:41.026Z,25.70
2022-09-07T09:49:20.122Z,25.73
2022-09-07T09:52:29.324Z,25.57
2022-09-07T09:55:37.017Z,25.48
2022-09-07T10:05:52.233Z,25.93
2022-09-07T10:08:59.063Z,26.20
2022-09-07T10:12:07.417Z,26.28
2022-09-07T10:15:41.277Z,26.58
2022-09-07T10:18:56.913Z,26.32
2022-09-07T10:22:03.102Z,26.23
2022-09-07T10:25:29.085Z,26.68
2022-09-07T10:32:03.413Z,27.06
2022-09-07T10:35:30.173Z,27.43
2022-09-07T10:38:42.139Z,27.40
2022-09-07T10:41:59.738Z,27.40
2022-09-07T10:45:14.827Z,27.52
2022-09-07T10:48:38.395Z,27.75
2022-09-07T10:52:02.465Z,27.73
2022-09-07T10:55:19.153Z,27.53
2022-09-07T10:59:01.398Z,27.48
2022-09-07T11:02:12.177Z,27.49
2022-09-07T11:05:38.124Z,27.91
2022-09-07T11:09:19.107Z,28.12
2022-09-07T11:12:28.890Z,28.13
2022-09-07T11:15:46.736Z,27.96
2022-09-07T11:22:44.195Z,28.28
2022-09-07T11:26:07.776Z,28.33
2022-09-07T11:29:30.593Z,28.55
2022-09-07T11:32:38.679Z,28.38
2022-09-07T11:36:02.283Z,28.30
2022-09-07T11:39:12.506Z,27.97
2022-09-07T11:42:48.554Z,28.05
2022-09-07T11:45:57.236Z,28.25
2022-09-07T11:49:00.152Z,28.38
2022-09-07T11:52:20.543Z,28.32
2022-09-07T11:55:31.059Z,28.51
2022-09-07T11:58:33.878Z,28.46
2022-09-07T12:01:54.948Z,28.61
2022-09-07T12:05:37.477Z,28.47
2022-09-07T12:08:40.097Z,28.23
2022-09-07T12:12:04.797Z,27.82
2022-09-07T12:15:20.780Z,27.90
2022-09-07T12:18:45.531Z,28.05
2022-09-07T12:21:51.118Z,28.20
2022-09-07T12:24:54.925Z,28.12
2022-09-07T12:27:58.074Z,28.17
2022-09-07T12:31:04.660Z,28.14
2022-09-07T12:34:32.143Z,28.17
2022-09-07T12:37:38.744Z,28.17
2022-09-07T12:40:47.104Z,28.40
2022-09-07T12:43:49.956Z,28.63
2022-09-07T12:46:55.739Z,28.85
2022-09-07T12:50:23.720Z,28.75
2022-09-07T12:53:35.371Z,28.95
2022-09-07T12:56:44.623Z,29.08
2022-09-07T13:00:43.261Z,29.19
2022-09-07T13:04:10.642Z,29.43
2022-09-07T13:07:38.046Z,29.03
2022-09-07T13:10:44.424Z,29.06
2022-09-07T13:14:24.652Z,29.16
2022-09-07T13:17:41.689Z,29.33
2022-09-07T13:20:44.314Z,29.26
2022-09-07T13:27:53.268Z,29.47
2022-09-07T13:31:07.726Z,29.47
2022-09-07T13:34:29.304Z,29.66
2022-09-07T13:37:52.249Z,29.96
2022-09-07T13:41:03.677Z,29.92
2022-09-07T13:44:06.610Z,30.09
2022-09-07T13:47:19.831Z,30.06
2022-09-07T13:50:42.609Z,29.74
2022-09-07T13:54:03.849Z,29.61
2022-09-07T13:57:22.121Z,29.70
2022-09-07T14:00:24.778Z,29.96
2022-09-07T14:03:43.856Z,29.91
2022-09-07T14:06:46.388Z,29.97
2022-09-07T14:09:49.406Z,30.11
2022-09-07T14:13:12.314Z,30.32
2022-09-07T14:16:15.956Z,30.15
2022-09-07T14:19:24.018Z,30.34
2022-09-07T14:22:32.136Z,30.44
2022-09-07T14:26:15.916Z,30.48
2022-09-07T14:28:58.108Z,30.46
2022-09-07T14:32:03.417Z,30.74
2022-09-07T14:35:10.909Z,30.67
2022-09-07T14:41:48.018Z,30.68
2022-09-07T14:44:53.304Z,31.01
2022-09-07T14:47:56.845Z,31.05
2022-09-07T14:51:26.131Z,31.26
2022-09-07T14:54:29.211Z,31.04
2022-09-07T14:57:32.462Z,31.08
2022-09-07T15:00:35.578Z,30.71
2022-09-07T15:03:43.853Z,30.59
2022-09-07T15:07:02.658Z,30.82
2022-09-07T15:10:20.899Z,31.49
2022-09-07T15:13:34.250Z,31.90
2022-09-07T15:16:43.187Z,31.67
2022-09-07T15:19:46.287Z,31.64
2022-09-07T15:22:48.897Z,31.23
2022-09-07T15:25:53.823Z,31.33
2022-09-07T15:29:12.181Z,31.58
2022-09-07T15:32:17.982Z,31.52
2022-09-07T15:35:20.756Z,32.58
2022-09-07T15:41:47.061Z,34.06
2022-09-07T15:44:50.309Z,35.07
2022-09-07T15:47:53.643Z,35.49
2022-09-07T15:51:03.483Z,35.52
2022-09-07T15:54:11.460Z,35.29
2022-09-07T16:00:39.211Z,35.71
2022-09-07T16:03:41.993Z,35.48
2022-09-07T16:06:47.854Z,34.96
2022-09-07T16:09:52.547Z,33.90
2022-09-07T16:13:09.630Z,31.97
2022-09-07T16:16:15.712Z,30.95
2022-09-07T16:19:21.520Z,30.64
2022-09-07T16:26:07.850Z,30.81
2022-09-07T16:29:11.079Z,29.96
2022-09-07T16:35:36.296Z,28.75
2022-09-07T16:38:47.294Z,28.34
2022-09-07T16:41:50.423Z,27.99
2022-09-07T16:44:53.031Z,27.58
2022-09-07T16:47:56.859Z,27.33
2022-09-07T16:51:02.573Z,27.03
2022-09-07T16:54:06.531Z,26.75
2022-09-07T16:57:08.930Z,26.52
2022-09-07T17:00:12.277Z,26.30
2022-09-07T17:03:14.743Z,26.14
2022-09-07T17:06:20.231Z,25.96
2022-09-07T17:09:26.465Z,25.80
2022-09-07T17:12:29.236Z,25.64
2022-09-07T17:15:35.760Z,25.51
2022-09-07T17:22:01.340Z,25.22
2022-09-07T17:25:04.988Z,25.07
2022-09-07T17:28:07.779Z,24.96
2022-09-07T17:34:38.905Z,24.73
2022-09-07T17:37:41.815Z,24.53
2022-09-07T17:40:44.793Z,24.40
2022-09-07T17:43:49.573Z,24.30
2022-09-07T17:46:52.412Z,24.18
2022-09-07T17:49:55.289Z,24.13
2022-09-07T17:52:57.938Z,24.09
2022-09-07T17:56:00.796Z,24.01
2022-09-07T18:02:27.308Z,23.83
2022-09-07T18:05:30.051Z,23.77
2022-09-07T18:08:32.728Z,23.72
2022-09-07T18:11:51.093Z,23.69
2022-09-07T18:14:53.764Z,23.71
2022-09-07T18:17:58.489Z,23.73
2022-09-07T18:21:01.027Z,23.73
2022-09-07T18:24:07.695Z,23.70
2022-09-07T18:27:10.260Z,23.69
2022-09-07T18:30:13.869Z,23.65
2022-09-07T18:33:16.393Z,23.59
2022-09-07T18:36:19.343Z,23.56
2022-09-07T18:39:22.045Z,23.50
2022-09-07T18:42:24.799Z,23.44
2022-09-07T18:45:27.897Z,23.41
2022-09-07T18:48:32.039Z,23.30
2022-09-07T18:52:51.438Z,23.22
2022-09-07T18:54:57.291Z,23.14
2022-09-07T18:58:02.715Z,23.06
2022-09-07T19:01:09.295Z,22.98
2022-09-07T19:04:12.127Z,22.87
2022-09-07T19:07:15.478Z,22.78
2022-09-07T19:10:18.349Z,22.72
2022-09-07T19:13:21.211Z,22.65
2022-09-07T19:16:24.464Z,22.59
2022-09-07T19:19:27.171Z,22.50
2022-09-07T19:22:29.654Z,22.42
2022-09-07T19:25:32.765Z,22.33
2022-09-07T19:28:35.935Z,22.25
2022-09-07T19:31:38.922Z,22.23
2022-09-07T19:34:43.387Z,22.24
2022-09-07T19:37:48.234Z,22.32
2022-09-07T19:40:58.477Z,22.31
2022-09-07T19:44:01.441Z,22.33
2022-09-07T19:47:04.016Z,22.32
2022-09-07T19:50:07.390Z,22.33
2022-09-07T19:53:10.246Z,22.28
2022-09-07T19:56:18.737Z,22.22
2022-09-07T19:59:21.354Z,22.18
2022-09-07T20:02:24.108Z,22.11
2022-09-07T20:05:31.084Z,22.08
2022-09-07T20:08:34.528Z,22.02
2022-09-07T20:11:37.406Z,21.98
2022-09-07T20:14:40.009Z,21.94
2022-09-07T20:17:42.784Z,21.94
2022-09-07T20:20:45.376Z,21.90
2022-09-07T20:23:48.647Z,21.91
2022-09-07T20:26:51.330Z,21.86
2022-09-07T20:29:54.200Z,21.90
2022-09-07T20:32:56.685Z,21.77
2022-09-07T20:36:08.122Z,21.67
2022-09-07T20:39:15.117Z,21.58
2022-09-07T20:42:17.913Z,21.53
2022-09-07T20:45:20.724Z,21.40
2022-09-07T20:48:24.165Z,21.36
2022-09-07T20:51:26.715Z,21.32
2022-09-07T20:54:29.529Z,21.25
2022-09-07T20:57:32.169Z,21.18
2022-09-07T21:00:36.355Z,21.08
2022-09-07T21:03:39.162Z,20.99
2022-09-07T21:06:42.098Z,20.92
2022-09-07T21:09:44.652Z,20.89
2022-09-07T21:12:47.408Z,20.83
2022-09-07T21:15:50.934Z,20.79
2022-09-07T21:18:56.374Z,20.77
2022-09-07T21:21:58.965Z,20.75
2022-09-07T21:25:02.311Z,20.67
2022-09-07T21:28:04.815Z,20.71
2022-09-07T21:31:09.557Z,20.72
2022-09-07T21:34:12.711Z,20.71
2022-09-07T21:37:15.428Z,20.63
2022-09-07T21:40:17.983Z,20.57
2022-09-07T21:43:20.734Z,20.49
2022-09-07T21:46:24.237Z,20.37
2022-09-07T21:49:27.088Z,20.29
2022-09-07T21:52:29.585Z,20.19
2022-09-07T21:55:32.316Z,20.11
2022-09-07T21:58:34.837Z,20.05
2022-09-07T22:01:37.578Z,20.06
2022-09-07T22:04:40.470Z,20.00
2022-09-07T22:07:43.035Z,20.00
2022-09-07T22:10:46.574Z,19.96
2022-09-07T22:13:49.744Z,19.97
2022-09-07T22:16:52.443Z,19.96
2022-09-07T22:19:54.974Z,19.95
2022-09-07T22:22:57.914Z,19.94
2022-09-07T22:26:00.680Z,19.95
2022-09-07T22:29:05.044Z,19.91
2022-09-07T22:32:07.437Z,19.91
2022-09-07T22:35:10.207Z,19.92
2022-09-07T22:38:12.974Z,19.88
2022-09-07T22:41:18.510Z,19.84
2022-09-07T22:44:21.002Z,19.84
2022-09-07T22:47:23.875Z,19.82
2022-09-07T22:50:26.744Z,19.81
2022-09-07T22:53:31.927Z,19.79
2022-09-07T22:56:34.638Z,19.76
2022-09-07T22:59:37.340Z,19.71
2022-09-07T23:02:39.825Z,19.62
2022-09-07T23:05:42.664Z,19.47
2022-09-07T23:08:45.169Z,19.40
2022-09-07T23:11:48.582Z,19.34
2022-09-07T23:14:51.068Z,19.30
2022-09-07T23:17:53.798Z,19.28
2022-09-07T23:21:00.853Z,19.28
2022-09-07T23:24:03.677Z,19.27
2022-09-07T23:27:06.673Z,19.23
2022-09-07T23:30:10.631Z,19.16
2022-09-07T23:33:13.346Z,19.12
2022-09-07T23:36:17.488Z,19.02
2022-09-07T23:39:20.048Z,18.97
2022-09-07T23:42:22.799Z,18.93
2022-09-07T23:45:25.406Z,18.88
2022-09-07T23:48:28.381Z,18.85
2022-09-07T23:51:30.809Z,18.80
2022-09-07T23:54:33.645Z,18.75
2022-09-07T23:57:36.332Z,18.72
